Time;durP1;ratioP1;P1;durP2;ratioP2;P2;SDS_P1;SDS_P2;PMS_P1;PMS_P2;Temp;Humidity;BMP_temperature;BMP_pressure;BME280_temperature;BME280_humidity;BME280_pressure;Samples;Min_cycle;Max_cycle;Signal;HPM_P1;HPM_P2
2023/04/16 00:01:35;;;;;;;14.23;8.17;;;10.20;99.90;;;10.39;nan;100692.69;4981920;28;20673;-67
2023/04/16 00:04:02;;;;;;;11.37;6.47;;;10.20;99.90;;;10.42;nan;100691.66;4972501;28;21398;-67
2023/04/16 00:06:30;;;;;;;11.27;7.03;;;10.20;99.90;;;10.41;nan;100688.25;4985164;28;21256;-67
2023/04/16 00:08:57;;;;;;;12.63;7.97;;;10.20;99.90;;;10.40;nan;100685.72;4989458;28;20695;-67
2023/04/16 00:11:25;;;;;;;12.60;8.37;;;10.20;99.90;;;10.40;nan;100683.94;4987135;28;20741;-67
2023/04/16 00:13:52;;;;;;;9.77;5.03;;;10.20;99.90;;;10.42;nan;100689.03;4983893;28;21190;-67
2023/04/16 00:16:19;;;;;;;7.20;5.47;;;10.20;99.90;;;10.46;nan;100693.09;4988136;28;21023;-67
2023/04/16 00:18:46;;;;;;;9.50;6.07;;;10.30;99.90;;;10.45;nan;100691.44;4979905;28;21535;-67
2023/04/16 00:21:13;;;;;;;9.77;6.40;;;10.30;99.90;;;10.44;nan;100695.81;4983641;28;20677;-68
2023/04/16 00:23:40;;;;;;;10.50;6.10;;;10.30;99.90;;;10.44;nan;100697.59;4986265;28;21015;-67
2023/04/16 00:26:08;;;;;;;11.17;8.37;;;10.30;99.90;;;10.40;nan;100691.78;4986047;28;20711;-68
2023/04/16 00:28:35;;;;;;;10.17;7.73;;;10.30;99.90;;;10.40;nan;100691.78;4970938;28;20641;-68
2023/04/16 00:31:02;;;;;;;7.60;5.30;;;10.30;99.90;;;10.41;nan;100693.44;4987866;28;20774;-68
2023/04/16 00:33:29;;;;;;;10.10;5.27;;;10.30;99.90;;;10.41;nan;100697.84;4987282;28;20650;-67
2023/04/16 00:35:56;;;;;;;10.13;4.80;;;10.20;99.90;;;10.40;nan;100691.78;4981411;28;21038;-67
2023/04/16 00:38:23;;;;;;;9.43;6.77;;;10.20;99.90;;;10.37;nan;100691.16;4984097;28;21280;-68
2023/04/16 00:40:50;;;;;;;6.90;4.43;;;10.20;99.90;;;10.40;nan;100696.16;4981588;28;20650;-67
2023/04/16 00:43:23;;;;;;;9.40;7.40;;;10.20;99.90;;;10.36;nan;100692.94;4992871;28;20692;-67
2023/04/16 00:45:52;;;;;;;9.93;5.50;;;10.20;99.90;;;10.32;nan;100688.88;4987850;28;20634;-68
2023/04/16 00:48:20;;;;;;;10.03;6.43;;;10.20;99.90;;;10.30;nan;100700.34;4990880;28;20645;-67
2023/04/16 00:50:47;;;;;;;12.03;7.57;;;10.20;99.90;;;10.25;nan;100695.44;4992109;28;20662;-67
2023/04/16 00:53:15;;;;;;;9.10;5.17;;;10.10;99.90;;;10.25;nan;100703.28;5017666;28;20644;-67
2023/04/16 00:55:42;;;;;;;8.97;5.60;;;10.10;99.90;;;10.24;nan;100700.78;4979075;28;20751;-67
2023/04/16 00:58:09;;;;;;;9.23;6.70;;;10.10;99.90;;;10.22;nan;100693.06;4989195;28;20634;-69
2023/04/16 01:00:36;;;;;;;7.67;5.50;;;10.10;99.90;;;10.23;nan;100696.50;4989297;28;20658;-67
2023/04/16 01:03:03;;;;;;;8.93;6.43;;;10.10;99.90;;;10.23;nan;100697.31;4975511;28;20639;-67
2023/04/16 01:05:30;;;;;;;15.63;7.77;;;10.10;99.90;;;10.19;nan;100692.44;4978566;28;20658;-67
2023/04/16 01:08:01;;;;;;;10.13;6.40;;;10.00;99.90;;;10.24;nan;100706.00;4991286;28;21397;-68
2023/04/16 01:10:28;;;;;;;8.67;5.37;;;10.10;99.90;;;10.26;nan;100710.16;4993996;28;20728;-67
2023/04/16 01:12:55;;;;;;;5.10;3.53;;;10.10;99.90;;;10.30;nan;100711.63;4978319;28;20635;-67
2023/04/16 01:15:22;;;;;;;9.03;5.70;;;10.10;99.90;;;10.30;nan;100708.16;4986675;28;20685;-67
2023/04/16 01:17:49;;;;;;;8.70;5.60;;;10.10;99.90;;;10.29;nan;100709.09;4985208;28;20669;-67
2023/04/16 01:20:16;;;;;;;10.40;6.60;;;10.10;99.90;;;10.31;nan;100708.06;4975945;28;20705;-67
2023/04/16 01:22:43;;;;;;;9.57;6.80;;;10.10;99.90;;;10.31;nan;100715.88;4994503;28;20699;-67
2023/04/16 01:25:14;;;;;;;4.27;2.87;;;10.20;99.90;;;10.32;nan;100716.72;5013136;28;20620;-67
2023/04/16 01:27:41;;;;;;;11.70;6.50;;;10.20;99.90;;;10.31;nan;100708.06;4998930;28;20696;-67
2023/04/16 01:30:09;;;;;;;9.90;6.17;;;10.20;99.90;;;10.33;nan;100711.38;4992612;28;21271;-68
2023/04/16 01:32:36;;;;;;;12.57;7.47;;;10.20;99.90;;;10.34;nan;100713.06;4992825;28;20728;-69
2023/04/16 01:35:03;;;;;;;10.80;6.80;;;10.20;99.90;;;10.33;nan;100716.59;4986951;28;20631;-67
2023/04/16 01:37:30;;;;;;;11.40;7.50;;;10.20;99.90;;;10.28;nan;100715.28;4983052;28;20673;-67
2023/04/16 01:39:57;;;;;;;8.50;5.57;;;10.10;99.90;;;10.30;nan;100721.22;4992706;28;20662;-68
2023/04/16 01:42:24;;;;;;;7.10;5.27;;;10.10;99.90;;;10.32;nan;100725.38;4990744;28;20715;-68
2023/04/16 01:44:51;;;;;;;8.00;4.80;;;10.20;99.90;;;10.29;nan;100728.19;4992785;28;21007;-67
2023/04/16 01:47:18;;;;;;;10.63;6.80;;;10.20;99.90;;;10.31;nan;100720.28;4992613;28;20703;-67
2023/04/16 01:49:47;;;;;;;10.40;5.80;;;10.20;99.90;;;10.31;nan;100730.72;4993565;28;21002;-68
2023/04/16 01:52:13;;;;;;;12.20;7.70;;;10.10;99.90;;;10.26;nan;100731.03;4992368;28;20637;-67
2023/04/16 01:54:41;;;;;;;14.00;7.13;;;10.10;99.90;;;10.25;nan;100731.13;4987733;28;20641;-67
2023/04/16 01:57:08;;;;;;;12.53;8.37;;;10.10;99.90;;;10.23;nan;100731.22;4983653;28;21090;-66
2023/04/16 01:59:35;;;;;;;11.97;7.10;;;10.10;99.90;;;10.25;nan;100736.31;4990288;28;20637;-68
2023/04/16 02:02:14;;;;;;;10.67;7.20;;;10.10;99.90;;;10.26;nan;100732.78;5030627;22;21088;-67
2023/04/16 02:04:44;;;;;;;17.43;6.27;;;10.10;99.90;;;10.28;nan;100734.38;5011861;28;20633;-66
2023/04/16 02:07:11;;;;;;;9.00;6.00;;;10.10;99.90;;;10.29;nan;100737.78;5029188;28;20678;-67
2023/04/16 02:09:40;;;;;;;9.30;6.23;;;10.20;99.90;;;10.29;nan;100738.63;5029039;28;20635;-67
2023/04/16 02:12:08;;;;;;;11.90;7.00;;;10.10;99.90;;;10.29;nan;100733.41;5004058;28;20665;-68
2023/04/16 02:14:35;;;;;;;9.70;6.10;;;10.10;99.90;;;10.24;nan;100732.91;5011714;28;20634;-69
2023/04/16 02:17:02;;;;;;;12.60;7.20;;;10.10;99.90;;;10.22;nan;100736.56;5005346;28;20675;-68
2023/04/16 02:19:29;;;;;;;14.00;8.67;;;10.10;99.90;;;10.20;nan;100741.84;5004170;28;21190;-67
2023/04/16 02:21:56;;;;;;;12.10;7.23;;;10.00;99.90;;;10.23;nan;100736.44;5003319;28;20661;-67
2023/04/16 02:24:23;;;;;;;11.20;6.40;;;10.10;99.90;;;10.23;nan;100743.41;4998911;28;20634;-68
2023/04/16 02:26:50;;;;;;;6.43;4.47;;;10.10;99.90;;;10.23;nan;100743.41;5012831;28;21063;-67
2023/04/16 02:29:18;;;;;;;15.63;8.20;;;10.10;99.90;;;10.25;nan;100744.16;5005245;28;21305;-67
2023/04/16 02:31:45;;;;;;;12.80;7.40;;;10.10;99.90;;;10.26;nan;100736.25;5012171;28;20665;-67
2023/04/16 02:34:12;;;;;;;10.63;6.07;;;10.10;99.90;;;10.28;nan;100749.16;5011357;28;20621;-68
2023/04/16 02:36:40;;;;;;;8.50;5.20;;;10.10;99.90;;;10.27;nan;100742.28;5005927;28;21137;-69
2023/04/16 02:39:07;;;;;;;10.63;7.00;;;10.10;99.90;;;10.25;nan;100737.16;5005895;28;20688;-68
2023/04/16 02:41:34;;;;;;;10.77;7.03;;;10.10;99.90;;;10.25;nan;100742.38;5011317;28;20733;-68
2023/04/16 02:44:01;;;;;;;7.47;3.87;;;10.10;99.90;;;10.24;nan;100743.34;5001998;28;20662;-68
2023/04/16 02:46:28;;;;;;;8.27;5.77;;;10.10;99.90;;;10.20;nan;100747.06;4999816;28;20633;-67
2023/04/16 02:48:55;;;;;;;8.37;5.17;;;10.10;99.90;;;10.20;nan;100752.28;5003267;28;20740;-67
2023/04/16 02:51:22;;;;;;;12.30;7.33;;;10.10;99.90;;;10.20;nan;100748.88;5004119;28;20672;-67
2023/04/16 02:53:49;;;;;;;11.90;6.80;;;10.10;99.90;;;10.21;nan;100751.34;5010602;28;20637;-67
2023/04/16 02:56:16;;;;;;;9.40;5.83;;;10.10;99.90;;;10.21;nan;100753.97;5011824;28;21306;-67
2023/04/16 02:58:44;;;;;;;8.93;6.07;;;10.10;99.90;;;10.22;nan;100745.22;5007447;28;20634;-67
2023/04/16 03:01:11;;;;;;;12.50;7.33;;;10.10;99.90;;;10.21;nan;100756.56;5000467;28;20675;-67
2023/04/16 03:03:38;;;;;;;11.30;6.90;;;10.10;99.90;;;10.21;nan;100751.34;5010093;28;21119;-68
2023/04/16 03:06:05;;;;;;;10.10;4.27;;;10.10;99.90;;;10.22;nan;100757.41;5011056;28;21268;-66
2023/04/16 03:08:32;;;;;;;13.37;8.00;;;10.10;99.90;;;10.17;nan;100756.88;5012588;28;21150;-68
2023/04/16 03:10:59;;;;;;;13.93;7.90;;;10.10;99.90;;;10.18;nan;100751.56;5006954;28;20661;-68
2023/04/16 03:13:26;;;;;;;16.40;8.00;;;10.00;99.90;;;10.19;nan;100753.25;5011484;28;20633;-66
2023/04/16 03:15:53;;;;;;;11.67;6.87;;;10.10;99.90;;;10.17;nan;100749.91;5002292;28;20645;-67
2023/04/16 03:18:20;;;;;;;7.43;5.30;;;10.00;99.90;;;10.19;nan;100739.38;5002403;28;21267;-67
2023/04/16 03:20:51;;;;;;;8.40;5.43;;;10.10;99.90;;;10.19;nan;100753.25;5001392;28;20652;-68
2023/04/16 03:23:18;;;;;;;11.10;7.23;;;10.10;99.90;;;10.18;nan;100751.56;5002621;28;20680;-68
2023/04/16 03:25:46;;;;;;;12.10;6.77;;;10.00;99.90;;;10.18;nan;100753.34;4991740;28;20630;-66
2023/04/16 03:28:14;;;;;;;11.47;6.10;;;10.10;99.90;;;10.17;nan;100751.66;4994471;28;20633;-67
2023/04/16 03:30:41;;;;;;;6.93;4.70;;;10.00;99.90;;;10.16;nan;100756.03;5010898;28;20652;-67
2023/04/16 03:33:08;;;;;;;12.97;8.07;;;10.00;99.90;;;10.16;nan;100756.03;5009923;28;20702;-67
2023/04/16 03:35:35;;;;;;;9.73;5.60;;;10.00;99.90;;;10.16;nan;100763.88;5005038;28;20634;-68
2023/04/16 03:38:02;;;;;;;14.70;7.43;;;10.00;99.90;;;10.19;nan;100770.66;5000680;28;21041;-67
2023/04/16 03:40:29;;;;;;;14.50;8.03;;;10.10;99.90;;;10.17;nan;100768.16;5007195;28;21495;-67
2023/04/16 03:42:55;;;;;;;9.10;5.30;;;10.10;99.90;;;10.19;nan;100771.50;5008763;28;20683;-67
2023/04/16 03:45:22;;;;;;;16.27;8.33;;;10.10;99.90;;;10.15;nan;100775.25;5008940;28;20656;-67
2023/04/16 03:47:51;;;;;;;11.10;6.10;;;10.00;99.90;;;10.17;nan;100772.53;4998536;28;20644;-68
2023/04/16 03:50:18;;;;;;;15.10;10.37;;;10.00;99.90;;;10.17;nan;100777.75;4991749;28;20986;-67
2023/04/16 03:52:48;;;;;;;7.87;5.50;;;10.10;99.90;;;10.19;nan;100779.31;4996366;28;20693;-67
2023/04/16 03:55:15;;;;;;;8.00;4.10;;;10.10;99.90;;;10.16;nan;100774.28;4994864;28;20637;-67
2023/04/16 03:57:42;;;;;;;12.80;4.97;;;10.00;99.90;;;10.14;nan;100770.97;5010124;28;20668;-67
2023/04/16 04:00:09;;;;;;;10.80;5.20;;;10.00;99.90;;;10.14;nan;100771.81;5010179;28;21018;-65
2023/04/16 04:02:36;;;;;;;14.17;7.60;;;10.00;99.90;;;10.13;nan;100775.38;5010400;28;20703;-67
2023/04/16 04:05:04;;;;;;;11.53;6.10;;;10.00;99.90;;;10.12;nan;100775.44;5010653;28;20636;-68
2023/04/16 04:07:31;;;;;;;7.00;4.67;;;10.00;99.90;;;10.11;nan;100768.56;5003320;28;20625;-67
2023/04/16 04:09:58;;;;;;;16.17;7.97;;;10.00;99.90;;;10.08;nan;100773.97;5010441;28;20641;-68
2023/04/16 04:12:25;;;;;;;11.57;7.87;;;10.00;99.90;;;10.10;nan;100775.56;5010518;28;20661;-67
2023/04/16 04:14:52;;;;;;;12.33;7.07;;;10.00;99.90;;;10.10;nan;100777.28;4999772;28;20634;-68
2023/04/16 04:17:19;;;;;;;11.47;6.53;;;10.00;99.90;;;10.08;nan;100780.00;5008837;28;21263;-67
2023/04/16 04:19:46;;;;;;;9.73;5.00;;;10.00;99.90;;;10.07;nan;100773.13;5013407;28;21192;-68
2023/04/16 04:22:26;;;;;;;6.97;4.17;;;10.00;99.90;;;10.10;nan;100775.56;5014181;28;20661;-67
2023/04/16 04:24:53;;;;;;;10.57;5.67;;;10.00;99.90;;;10.13;nan;100777.13;4995313;28;20638;-68
2023/04/16 04:27:20;;;;;;;8.47;4.60;;;10.00;99.90;;;10.13;nan;100777.13;5011433;28;20650;-67
2023/04/16 04:29:46;;;;;;;8.10;4.23;;;10.00;99.90;;;10.15;nan;100780.47;4999861;28;20638;-67
2023/04/16 04:32:13;;;;;;;12.37;6.80;;;10.00;99.90;;;10.15;nan;100785.69;5026971;28;20657;-67
2023/04/16 04:34:40;;;;;;;10.70;6.20;;;10.00;99.90;;;10.13;nan;100780.59;5013355;28;20638;-67
2023/04/16 04:37:07;;;;;;;6.27;4.10;;;10.00;99.90;;;10.16;nan;100789.94;5013398;28;21274;-67
2023/04/16 04:39:34;;;;;;;8.43;4.90;;;10.00;99.90;;;10.14;nan;100787.44;5002548;28;20641;-68
2023/04/16 04:42:02;;;;;;;8.53;5.40;;;10.00;99.90;;;10.13;nan;100787.56;5012014;28;20664;-66
2023/04/16 04:44:29;;;;;;;12.07;7.07;;;10.00;99.90;;;10.12;nan;100788.47;5012804;28;20644;-68
2023/04/16 04:46:56;;;;;;;6.57;3.90;;;10.00;99.90;;;10.13;nan;100788.41;5006286;28;20637;-67
2023/04/16 04:49:23;;;;;;;6.40;4.40;;;10.00;99.90;;;10.16;nan;100792.56;5003239;28;20638;-67
2023/04/16 04:51:50;;;;;;;9.37;5.77;;;10.00;99.90;;;10.18;nan;100801.09;5003828;28;20680;-67
2023/04/16 04:54:17;;;;;;;2.60;2.30;;;10.00;99.90;;;10.21;nan;100797.47;5011087;28;21200;-67
2023/04/16 04:56:46;;;;;;;6.13;4.20;;;10.10;99.90;;;10.20;nan;100806.22;5013290;28;20648;-68
2023/04/16 04:59:13;;;;;;;7.10;4.70;;;10.10;99.90;;;10.16;nan;100813.41;5004826;28;21285;-67
2023/04/16 05:01:40;;;;;;;4.47;3.47;;;10.00;99.90;;;10.14;nan;100813.53;5012911;28;21035;-67
2023/04/16 05:04:07;;;;;;;5.17;3.40;;;10.00;99.90;;;10.15;nan;100816.97;5013424;28;20621;-67
2023/04/16 05:06:34;;;;;;;3.60;2.83;;;10.00;99.90;;;10.16;nan;100817.81;5007137;28;20633;-67
2023/04/16 05:09:01;;;;;;;5.50;3.60;;;10.00;99.90;;;10.14;nan;100830.94;5003217;28;20637;-67
2023/04/16 05:11:29;;;;;;;4.17;3.50;;;10.00;99.90;;;10.12;nan;100824.97;4998576;28;20718;-68
2023/04/16 05:13:56;;;;;;;9.07;4.63;;;10.00;99.90;;;10.12;nan;100831.03;5004264;28;21061;-67
2023/04/16 05:16:23;;;;;;;5.17;3.83;;;10.00;99.90;;;10.16;nan;100833.47;5008078;28;20629;-67
2023/04/16 05:18:50;;;;;;;6.93;4.30;;;10.00;99.90;;;10.14;nan;100830.94;5012559;28;20661;-67
2023/04/16 05:21:17;;;;;;;5.33;4.30;;;10.00;99.90;;;10.15;nan;100832.63;5012318;28;20991;-68
2023/04/16 05:23:44;;;;;;;8.77;4.90;;;10.00;99.90;;;10.17;nan;100840.31;5008424;28;20702;-67
2023/04/16 05:26:11;;;;;;;5.77;3.63;;;10.00;99.90;;;10.24;nan;100839.00;5003342;28;20716;-68
2023/04/16 05:28:38;;;;;;;4.90;3.57;;;10.10;99.90;;;10.26;nan;100848.38;5000568;28;20645;-67
2023/04/16 05:31:05;;;;;;;5.67;2.97;;;10.10;99.90;;;10.31;nan;100848.88;5001454;28;20645;-66
2023/04/16 05:33:32;;;;;;;8.67;5.70;;;10.20;99.90;;;10.34;nan;100845.25;5012461;28;20718;-68
2023/04/16 05:35:59;;;;;;;5.60;4.30;;;10.20;99.90;;;10.38;nan;100847.53;4998834;28;20637;-68
2023/04/16 05:38:26;;;;;;;4.50;3.37;;;10.30;99.90;;;10.43;nan;100853.31;4998414;28;20672;-67
2023/04/16 05:40:54;;;;;;;6.13;4.47;;;10.30;99.90;;;10.47;nan;100854.75;5003627;28;20743;-68
2023/04/16 05:43:21;;;;;;;9.90;5.23;;;10.30;99.90;;;10.48;nan;100852.97;5007743;28;20639;-68
2023/04/16 05:45:48;;;;;;;3.23;2.23;;;10.40;99.90;;;10.48;nan;100856.41;5004068;28;20648;-67
2023/04/16 05:48:15;;;;;;;8.30;5.20;;;10.40;99.90;;;10.51;nan;100855.38;5010653;28;20636;-68
2023/04/16 05:50:42;;;;;;;8.60;4.93;;;10.40;99.90;;;10.53;nan;100859.56;5007217;28;21251;-68
2023/04/16 05:53:09;;;;;;;8.37;4.60;;;10.40;99.90;;;10.54;nan;100865.63;5008168;28;20648;-68
2023/04/16 05:55:36;;;;;;;8.47;5.20;;;10.40;99.90;;;10.61;nan;100862.47;5003462;28;21529;-67
2023/04/16 05:58:05;;;;;;;8.30;3.80;;;10.50;99.90;;;10.66;nan;100869.97;5001186;28;20737;-67
2023/04/16 06:00:32;;;;;;;4.57;3.00;;;10.50;99.90;;;10.64;nan;100872.72;5011559;28;20677;-68
2023/04/16 06:02:59;;;;;;;4.47;3.30;;;10.50;99.90;;;10.66;nan;100875.22;5011576;28;21044;-67
2023/04/16 06:05:28;;;;;;;2.70;1.90;;;10.50;99.90;;;10.69;nan;100872.41;5010436;28;21286;-66
2023/04/16 06:07:55;;;;;;;4.97;3.37;;;10.60;99.90;;;10.68;nan;100873.31;5013043;28;20691;-67
2023/04/16 06:10:25;;;;;;;5.83;3.80;;;10.50;99.90;;;10.69;nan;100877.63;5011131;28;20652;-68
2023/04/16 06:12:52;;;;;;;4.80;3.30;;;10.60;99.90;;;10.69;nan;100880.22;4994305;28;20645;-67
2023/04/16 06:15:19;;;;;;;0.40;0.40;;;10.60;99.90;;;10.71;nan;100881.75;5009527;28;20637;-66
2023/04/16 06:17:46;;;;;;;5.33;3.20;;;10.60;99.90;;;10.67;nan;100882.91;4998176;28;20699;-66
2023/04/16 06:20:13;;;;;;;4.50;2.33;;;10.50;99.90;;;10.67;nan;100888.13;5006306;28;21260;-67
2023/04/16 06:22:40;;;;;;;4.30;3.03;;;10.50;99.90;;;10.65;nan;100890.03;5002865;28;20630;-68
2023/04/16 06:25:08;;;;;;;6.40;4.20;;;10.50;99.90;;;10.66;nan;100901.31;5002076;28;20642;-65
2023/04/16 06:27:35;;;;;;;6.23;3.43;;;10.50;99.90;;;10.68;nan;100896.81;4997114;28;20641;-68
2023/04/16 06:30:02;;;;;;;4.40;3.17;;;10.50;99.90;;;10.69;nan;100903.72;5011987;28;20631;-68
2023/04/16 06:32:30;;;;;;;9.13;5.30;;;10.50;99.90;;;10.65;nan;100892.63;5012303;28;20672;-68
2023/04/16 06:34:57;;;;;;;11.73;6.70;;;10.50;99.90;;;10.61;nan;100899.00;5011303;28;20672;-68
2023/04/16 06:37:24;;;;;;;6.47;3.80;;;10.50;99.90;;;10.64;nan;100892.75;5011492;28;20657;-67
2023/04/16 06:39:51;;;;;;;10.93;5.60;;;10.50;99.90;;;10.62;nan;100905.06;5003296;28;20664;-68
2023/04/16 06:42:19;;;;;;;3.03;2.40;;;10.50;99.90;;;10.64;nan;100901.41;5007058;28;21329;-66
2023/04/16 06:44:46;;;;;;;11.90;6.07;;;10.50;99.90;;;10.62;nan;100907.66;4998076;28;20687;-67
2023/04/16 06:47:13;;;;;;;7.03;4.47;;;10.50;99.90;;;10.53;nan;100909.13;5003599;28;20699;-68
2023/04/16 06:49:40;;;;;;;8.93;4.90;;;10.50;99.90;;;10.52;nan;100907.44;5006456;28;20641;-68
2023/04/16 06:52:07;;;;;;;9.67;5.73;;;10.40;99.90;;;10.51;nan;100908.41;5004989;28;20670;-67
2023/04/16 06:54:35;;;;;;;8.40;4.90;;;10.40;99.90;;;10.49;nan;100909.44;5001824;28;20676;-67
2023/04/16 06:57:02;;;;;;;9.73;4.87;;;10.40;99.90;;;10.51;nan;100916.22;5009826;28;20638;-68
2023/04/16 06:59:29;;;;;;;10.50;6.37;;;10.40;99.90;;;10.56;nan;100915.91;5006372;28;20720;-66
2023/04/16 07:01:56;;;;;;;9.97;5.80;;;10.40;99.90;;;10.61;nan;100914.66;4992276;28;20650;-67
2023/04/16 07:04:23;;;;;;;2.20;1.90;;;10.50;99.90;;;10.64;nan;100908.41;5025475;28;20629;-67
2023/04/16 07:06:50;;;;;;;12.13;7.30;;;10.50;99.90;;;10.71;nan;100907.88;5003782;28;20642;-64
2023/04/16 07:09:17;;;;;;;9.23;4.90;;;10.60;99.90;;;10.73;nan;100910.38;5009546;28;20637;-67
2023/04/16 07:11:44;;;;;;;7.63;4.83;;;10.60;99.90;;;10.71;nan;100912.28;5005436;28;20668;-68
2023/04/16 07:14:11;;;;;;;7.40;5.10;;;10.60;99.90;;;10.76;nan;100905.78;5003768;28;20629;-65
2023/04/16 07:16:38;;;;;;;3.90;2.47;;;10.60;99.90;;;10.82;nan;100907.13;4990484;28;20684;-67
2023/04/16 07:19:05;;;;;;;14.60;5.97;;;10.70;99.90;;;10.89;nan;100901.41;4991459;28;20670;-67
2023/04/16 07:21:32;;;;;;;10.33;5.60;;;10.80;99.90;;;10.96;nan;100914.03;4996676;28;20655;-66
2023/04/16 07:23:59;;;;;;;9.57;4.77;;;10.80;99.90;;;10.98;nan;100912.13;4991111;28;20626;-67
2023/04/16 07:26:26;;;;;;;9.10;5.43;;;10.80;99.90;;;11.02;nan;100913.59;4996166;28;20634;-66
2023/04/16 07:28:53;;;;;;;10.57;4.57;;;10.90;99.90;;;11.06;nan;100918.50;4992477;28;20613;-66
2023/04/16 07:31:20;;;;;;;13.53;5.60;;;11.00;99.90;;;11.14;nan;100913.56;4990885;28;20670;-67
2023/04/16 07:33:47;;;;;;;9.20;5.33;;;11.00;99.90;;;11.13;nan;100922.38;4991697;28;20626;-67
2023/04/16 07:36:14;;;;;;;12.03;6.77;;;11.00;99.90;;;11.11;nan;100924.25;4996799;28;21200;-67
2023/04/16 07:38:41;;;;;;;13.20;5.53;;;11.00;99.90;;;11.10;nan;100927.78;5005067;28;20662;-67
2023/04/16 07:41:08;;;;;;;6.43;3.53;;;11.00;99.90;;;11.09;nan;100925.28;5006604;28;20665;-68
2023/04/16 07:43:35;;;;;;;10.27;5.73;;;11.00;99.90;;;11.08;nan;100929.69;4998657;28;20635;-67
2023/04/16 07:46:02;;;;;;;6.80;4.60;;;11.00;99.90;;;11.08;nan;100926.22;5007033;28;20625;-66
2023/04/16 07:48:29;;;;;;;15.50;6.30;;;11.00;99.90;;;11.14;nan;100931.06;5010318;28;21200;-67
2023/04/16 07:50:57;;;;;;;4.40;2.77;;;11.00;99.90;;;11.16;nan;100937.81;5011219;28;21081;-67
2023/04/16 07:53:24;;;;;;;13.67;7.13;;;11.10;99.90;;;11.18;nan;100929.88;4989914;28;20661;-65
2023/04/16 07:55:51;;;;;;;7.87;4.20;;;11.00;99.90;;;11.22;nan;100934.75;4990709;28;21201;-67
2023/04/16 07:58:17;;;;;;;9.10;5.70;;;11.10;99.90;;;11.24;nan;100935.53;4990570;28;20675;-68
2023/04/16 08:00:45;;;;;;;3.53;2.73;;;11.10;99.90;;;11.32;nan;100948.88;5023591;22;20723;-66
2023/04/16 08:03:12;;;;;;;8.10;4.73;;;11.10;99.90;;;11.35;nan;100940.00;5018275;28;21203;-65
2023/04/16 08:05:39;;;;;;;6.23;3.17;;;11.20;99.90;;;11.38;nan;100951.06;5009218;28;21013;-65
2023/04/16 08:08:06;;;;;;;10.37;4.50;;;11.20;99.90;;;11.37;nan;100941.53;5007818;28;20636;-65
2023/04/16 08:10:33;;;;;;;4.63;3.30;;;11.20;99.90;;;11.42;nan;100938.59;5011305;28;20694;-65
2023/04/16 08:13:03;;;;;;;11.27;5.77;;;11.30;99.90;;;11.43;nan;100948.13;5012543;28;20640;-65
2023/04/16 08:15:30;;;;;;;8.57;5.20;;;11.30;99.90;;;11.44;nan;100952.38;5007945;28;20686;-65
2023/04/16 08:17:58;;;;;;;9.63;5.10;;;11.30;99.90;;;11.47;nan;100946.97;5029527;28;21228;-66
2023/04/16 08:20:25;;;;;;;5.37;3.37;;;11.30;99.90;;;11.56;nan;100952.34;5030039;28;20624;-66
2023/04/16 08:22:53;;;;;;;6.40;3.40;;;11.40;99.90;;;11.55;nan;100962.94;5011524;28;20661;-65
2023/04/16 08:25:22;;;;;;;7.73;5.10;;;11.40;99.90;;;11.55;nan;100962.94;5012362;28;21235;-65
2023/04/16 08:27:49;;;;;;;8.07;4.90;;;11.40;99.90;;;11.57;nan;100955.81;5022727;28;21205;-65
2023/04/16 08:30:16;;;;;;;6.90;4.57;;;11.40;99.90;;;11.57;nan;100961.88;5012464;28;20635;-65
2023/04/16 08:32:43;;;;;;;8.80;4.20;;;11.40;99.90;;;11.57;nan;100961.88;5010680;28;20668;-65
2023/04/16 08:35:11;;;;;;;12.73;4.97;;;11.50;99.90;;;11.58;nan;100966.16;5009694;28;20637;-65
2023/04/16 08:37:38;;;;;;;11.97;6.20;;;11.50;99.90;;;11.48;nan;100961.69;5019597;28;21041;-65
2023/04/16 08:40:06;;;;;;;10.00;6.90;;;11.40;99.90;;;11.38;nan;100974.56;5007334;28;20681;-65
2023/04/16 08:42:48;;;;;;;8.37;6.17;;;11.30;99.90;;;11.36;nan;100968.63;5008442;28;20667;-65
2023/04/16 08:45:17;;;;;;;10.30;6.87;;;11.30;99.90;;;11.31;nan;100977.69;5009223;28;20617;-66
2023/04/16 08:47:51;;;;;;;10.77;7.03;;;11.20;99.90;;;11.30;nan;100971.66;5007058;28;20638;-65
2023/04/16 08:50:24;;;;;;;8.93;5.37;;;11.20;99.90;;;11.30;nan;100989.94;5017088;28;20999;-66
2023/04/16 08:52:57;;;;;;;9.10;5.90;;;11.20;99.90;;;11.25;nan;100992.03;5004466;28;21224;-65
2023/04/16 08:55:38;;;;;;;5.33;4.33;;;11.10;99.90;;;11.14;nan;100985.91;4992854;28;21233;-66
2023/04/16 08:58:20;;;;;;;6.80;5.03;;;11.00;99.90;;;11.07;nan;100987.25;5007100;28;21253;-65
2023/04/16 09:00:48;;;;;;;9.30;5.47;;;11.00;99.90;;;11.00;nan;100985.97;5011631;28;20688;-64
2023/04/16 09:03:15;;;;;;;7.63;4.83;;;10.90;99.90;;;11.04;nan;101001.34;5008108;28;20633;-65
2023/04/16 09:05:43;;;;;;;7.60;4.57;;;10.90;99.90;;;11.06;nan;101001.22;5029794;28;20632;-65
2023/04/16 09:08:10;;;;;;;14.53;5.80;;;10.90;99.90;;;11.03;nan;101002.25;5009468;28;21177;-65
2023/04/16 09:10:37;;;;;;;11.30;6.60;;;10.90;99.90;;;11.00;nan;101002.50;5006823;28;20629;-65
2023/04/16 09:13:04;;;;;;;8.80;5.07;;;10.90;99.90;;;10.95;nan;101001.94;5013961;28;21063;-65
2023/04/16 09:15:32;;;;;;;8.00;4.63;;;10.80;99.90;;;10.97;nan;101005.28;5015260;28;20694;-65
2023/04/16 09:18:01;;;;;;;12.57;4.60;;;10.80;99.90;;;10.96;nan;101008.00;5022423;28;20698;-66
2023/04/16 09:20:28;;;;;;;10.83;6.80;;;10.80;99.90;;;10.93;nan;101004.69;5012204;28;20628;-65
2023/04/16 09:22:55;;;;;;;9.00;4.80;;;10.80;99.90;;;10.96;nan;101008.84;5003660;28;20653;-65
2023/04/16 09:25:24;;;;;;;11.23;5.67;;;10.80;99.90;;;10.90;nan;101010.09;5011695;28;21026;-67
2023/04/16 09:27:51;;;;;;;9.67;4.83;;;10.80;99.90;;;10.89;nan;101007.59;4994755;28;20626;-65
2023/04/16 09:30:26;;;;;;;9.93;5.40;;;10.80;99.90;;;10.89;nan;101013.66;4994233;28;20624;-68
2023/04/16 09:33:16;;;;;;;3.17;2.00;;;10.80;99.90;;;10.91;nan;101013.53;4996264;28;20645;-66
2023/04/16 09:35:51;;;;;;;5.60;4.00;;;10.80;99.90;;;11.00;nan;101009.47;5008833;28;21211;-66
2023/04/16 09:38:19;;;;;;;7.80;4.20;;;10.90;99.90;;;11.03;nan;101009.28;5018063;28;20713;-66
2023/04/16 09:40:46;;;;;;;9.70;5.87;;;10.90;99.90;;;11.00;nan;101009.47;5008198;28;20640;-65
2023/04/16 09:43:15;;;;;;;5.47;3.53;;;10.90;99.90;;;11.02;nan;101010.22;5022353;28;21052;-66
2023/04/16 09:45:53;;;;;;;8.33;4.87;;;10.90;99.90;;;11.07;nan;101013.34;5013737;28;20663;-65
2023/04/16 09:48:32;;;;;;;7.83;4.40;;;10.90;99.90;;;11.05;nan;101017.84;5011976;28;21189;-65
2023/04/16 09:51:00;;;;;;;5.87;4.40;;;11.00;99.90;;;11.07;nan;101013.34;5009634;28;20713;-66
2023/04/16 09:53:29;;;;;;;8.20;4.33;;;11.00;99.90;;;11.07;nan;101015.97;5007277;28;20641;-68
2023/04/16 09:55:58;;;;;;;10.97;5.00;;;11.00;99.90;;;11.13;nan;101020.78;5022610;28;21019;-66
2023/04/16 09:58:26;;;;;;;5.97;3.80;;;11.00;99.90;;;11.14;nan;101027.69;5003625;28;20669;-63
2023/04/16 10:01:11;;;;;;;4.60;3.30;;;11.00;99.90;;;11.20;nan;101025.47;4995694;28;20653;-66
2023/04/16 10:03:39;;;;;;;4.17;2.60;;;11.10;99.90;;;11.17;nan;101033.53;5014267;28;20634;-65
2023/04/16 10:06:18;;;;;;;14.63;3.07;;;11.10;99.90;;;11.11;nan;101031.31;5017849;28;21182;-65
2023/04/16 10:08:50;;;;;;;7.23;4.87;;;11.00;99.90;;;11.09;nan;101034.97;4992114;28;20614;-66
2023/04/16 10:11:19;;;;;;;4.63;3.23;;;11.00;99.90;;;11.13;nan;101031.22;5012843;28;20666;-65
2023/04/16 10:13:46;;;;;;;13.97;7.30;;;11.00;99.90;;;11.17;nan;101033.53;5012725;28;20636;-65
2023/04/16 10:16:13;;;;;;;7.37;5.00;;;11.10;99.90;;;11.17;nan;101030.06;4995247;28;21005;-64
2023/04/16 10:18:43;;;;;;;9.27;5.50;;;11.00;99.90;;;11.20;nan;101038.50;5011999;28;20664;-66
2023/04/16 10:21:11;;;;;;;7.80;4.73;;;11.10;99.90;;;11.23;nan;101032.25;5023709;28;20666;-66
2023/04/16 10:23:39;;;;;;;11.87;6.90;;;11.10;99.90;;;11.27;nan;101033.72;5012600;28;20634;-65
2023/04/16 10:26:07;;;;;;;13.67;7.07;;;11.10;99.90;;;11.27;nan;101031.09;5011112;28;21053;-65